• Join FlightAware (Why Join?)
  • Login
  • US Flag 
05:15AM EDT


 

Airport Tracker/Info


-or-


 

Live Flight TrackerFlight Track Log ✈ EJA935 ✈ 01-Jul-2013 ✈ KBUF - KSWF

Flight Track Log - Related Links

Times and Time Zones

All times are in EDT time to prevent confusion due to time zone crossing. See the EJA935 flight status page for this flight to view local times or setup timezone preferences in your user account.

Time Position Orientation Groundspeed Altitude Reporting Facility
EDT Latitude Longitude Course Direction KTS MPH feet Rate Location/Type
09:54PM 42.9500 -78.7167 82° East 169 194 1,800  Level Buffalo TRACON
09:56PM 42.9639 -78.5831 82° East 225 259 7,200 2,880 Climbing Cleveland Center
09:57PM 42.9475 -78.4786 102° East 263 303 9,900 2,160 Climbing Cleveland Center
09:58PM 42.9308 -78.3600 101° East 291 335 11,600 1,980 Climbing Cleveland Center
09:59PM 42.9114 -78.2303 102° East 324 373 13,900 2,100 Climbing Cleveland Center
10:00PM 42.8900 -78.0981 102° East 346 398 15,900 1,860 Climbing Cleveland Center
10:01PM 42.8703 -77.9600 101° East 360 414 17,700 1,800 Climbing Cleveland Center
10:02PM 42.8461 -77.8164 103° East 373 429 19,500 1,560 Climbing Cleveland Center
10:03PM 42.8319 -77.6669 97° East 384 442 20,900 1,380 Climbing Cleveland Center
10:04PM 42.8283 -77.5256 92° East 396 456 22,300 1,020 Climbing Cleveland Center
10:05PM 42.8281 -77.3586 90° East 416 479 23,000 300 Climbing Cleveland Center
10:06PM 42.8228 -77.1833 92° East 442 509 23,000  Level Cleveland Center
10:07PM 42.7864 -77.0125 106° East 464 534 23,000  Level Cleveland Center
10:08PM 42.7394 -76.8486 111° Southeast 464 534 23,000  Level Cleveland Center
10:09PM 42.6753 -76.6317 112° Southeast 457 526 23,000  Level Boston Center
10:10PM 42.6217 -76.4444 111° Southeast 457 526 23,000  Level Boston Center
10:11PM 42.5769 -76.2892 111° Southeast 452 520 23,000  Level Boston Center
10:12PM 42.5319 -76.1369 112° Southeast 441 507 23,000  Level Boston Center
10:13PM 42.4889 -75.9881 111° Southeast 431 496 23,000  Level Boston Center
10:14PM 42.4453 -75.8392 112° Southeast 426 490 23,000 -360 Level Boston Center
10:15PM 42.3997 -75.6906 113° Southeast 421 484 22,300 -1,680 Descending Boston Center
10:16PM 42.3500 -75.5306 113° Southeast 427 491 19,700 -2,400 Descending Boston Center
10:17PM 42.3042 -75.3767 112° Southeast 438 504 17,600 -2,220 Descending Boston Center
10:18PM 42.2619 -75.2286 111° Southeast 438 504 15,300 -2,220 Descending Boston Center
10:19PM 42.2211 -75.1036 114° Southeast 427 491 13,200 -2,100 Descending Boston Center
10:20PM 42.1783 -74.9644 112° Southeast 408 470 11,100 -1,200 Descending Boston Center
10:21PM 42.1289 -74.8419 119° Southeast 395 455 10,800 -600 Descending Boston Center
10:22PM 42.0872 -74.7425 119° Southeast 344 396 9,900 -900 Descending Boston Center
10:23PM 42.0417 -74.6317 119° Southeast 313 360 9,100 -840 Descending Boston Center
10:24PM 42.0056 -74.5467 120° Southeast 303 349 8,300 -900 Descending Boston Center
10:25PM 41.9597 -74.4419 120° Southeast 298 343 7,400 -660 Descending Boston Center
10:26PM 41.9256 -74.3572 118° Southeast 293 337 7,000 -1,020 Descending Boston Center
10:29PM 41.8000 -74.1667 131° Southeast 260 299 4,000 -960 Descending New York TRACON
10:29PM 41.7667 -74.1000 124° Southeast 272 313 4,000 -180 Level New York TRACON
10:30PM 41.7167 -74.0333 135° Southeast 276 318 3,700 -300 Descending New York TRACON